Grosseto Airport LIRS

Flugplatz Daten

Name: Grosseto Airport

Ident: LIRS

Lat: 42,75970078

Long: 11,07190037

Platzhöhe: 17 ft

IataCode: GRS

City: Grosetto

Metar

2021/08/05 12:55
LIRS 051255Z 21007KT 9999 FEW023TCU 28/15 Q1009 RMK BKN SCT200 VIS MIN 9999 WIND THR03 23007KT WIND THR21 22009KT BLU

Taf

2018/06/29 09:24
TAF TAF LIRS 290800Z 2909/2921 VRB03KT 9999 FEW030
BECMG 2911/2913 24015KT
Gewünschte Webcam nicht vorhanden? Dann fügen Sie eine hinzu. Sie wird dann so schnell wie möglich freigeschaltet
Url: Title: